createdAt,value
2023-05-03T00:03:56.786Z,102127.75
2023-05-03T00:08:58.314Z,102117.78
2023-05-03T00:13:59.836Z,102114.94
2023-05-03T00:19:01.363Z,102111.97
2023-05-03T00:24:02.966Z,102103.91
2023-05-03T00:29:04.506Z,102106.50
2023-05-03T00:34:06.058Z,102098.53
2023-05-03T00:39:07.638Z,102098.19
2023-05-03T00:44:09.278Z,102094.06
2023-05-03T00:49:11.253Z,102107.75
2023-05-03T00:54:13.170Z,102107.06
2023-05-03T00:59:15.002Z,102118.03
2023-05-03T01:04:18.831Z,102108.09
2023-05-03T01:09:38.565Z,102104.19
2023-05-03T01:14:46.133Z,102108.59
2023-05-03T01:19:55.040Z,102102.25
2023-05-03T01:25:02.548Z,102103.94
2023-05-03T01:30:05.676Z,102105.63
2023-05-03T01:35:26.531Z,102099.78
2023-05-03T01:40:30.786Z,102103.78
2023-05-03T01:45:32.494Z,102103.78
2023-05-03T01:50:34.071Z,102108.09
2023-05-03T01:55:35.693Z,102109.06
2023-05-03T02:00:38.490Z,102115.78
2023-05-03T02:05:40.093Z,102119.53
2023-05-03T02:10:44.027Z,102122.28
2023-05-03T02:15:45.589Z,102126.84
2023-05-03T02:20:47.263Z,102132.66
2023-05-03T02:25:48.875Z,102136.22
2023-05-03T02:30:50.414Z,102133.75
2023-05-03T02:35:52.063Z,102152.25
2023-05-03T02:40:53.682Z,102156.06
2023-05-03T02:45:55.357Z,102151.75
2023-05-03T02:50:58.252Z,102154.09
2023-05-03T02:56:00.039Z,102148.72
2023-05-03T03:01:01.732Z,102142.91
2023-05-03T03:06:05.431Z,102143.84
2023-05-03T03:11:09.613Z,102136.78
2023-05-03T03:16:11.465Z,102131.28
2023-05-03T03:21:13.211Z,102132.84
2023-05-03T03:26:14.831Z,102129.53
2023-05-03T03:31:16.952Z,102124.13
2023-05-03T03:36:18.758Z,102123.91
2023-05-03T03:41:22.819Z,102122.25
2023-05-03T03:46:25.436Z,102125.56
2023-05-03T03:51:30.058Z,102116.44
2023-05-03T03:56:32.814Z,102119.97
2023-05-03T04:01:35.223Z,102108.34
2023-05-03T04:06:38.954Z,102113.22
2023-05-03T04:11:45.557Z,102114.59
2023-05-03T04:16:48.199Z,102115.41
2023-05-03T04:21:49.944Z,102109.38
2023-05-03T04:26:53.693Z,102103.03
2023-05-03T04:32:01.967Z,102096.88
2023-05-03T04:37:03.634Z,102084.88
2023-05-03T04:42:05.354Z,102094.44
2023-05-03T04:47:06.986Z,102116.97
2023-05-03T04:52:08.931Z,102115.72
2023-05-03T04:57:10.934Z,102128.38
2023-05-03T05:02:12.586Z,102137.44
2023-05-03T05:07:14.257Z,102150.66
2023-05-03T05:12:18.165Z,102146.38
2023-05-03T05:17:19.863Z,102147.63
2023-05-03T05:22:21.950Z,102155.44
2023-05-03T05:27:29.742Z,102163.47
2023-05-03T05:32:33.979Z,102169.94
2023-05-03T05:37:36.323Z,102175.06
2023-05-03T05:42:40.058Z,102183.66
2023-05-03T05:47:42.274Z,102195.28
2023-05-03T05:52:44.260Z,102199.94
2023-05-03T05:57:47.668Z,102206.66
2023-05-03T06:02:51.524Z,102203.47
2023-05-03T06:07:56.007Z,102212.28
2023-05-03T06:12:57.753Z,102205.81
2023-05-03T06:18:01.077Z,102208.28
2023-05-03T06:23:02.716Z,102209.84
2023-05-03T06:28:04.537Z,102218.34
2023-05-03T06:33:12.889Z,102211.00
2023-05-03T06:38:14.824Z,102218.13
2023-05-03T06:43:16.934Z,102223.63
2023-05-03T06:48:25.065Z,102215.03
2023-05-03T06:53:26.739Z,102220.75
2023-05-03T06:58:28.238Z,102231.78
2023-05-03T07:03:29.821Z,102237.97
2023-05-03T07:08:31.526Z,102223.91
2023-05-03T07:13:33.068Z,102222.56
2023-05-03T07:18:34.647Z,102215.59
2023-05-03T07:23:36.206Z,102212.25
2023-05-03T07:28:37.749Z,102213.03
2023-05-03T07:33:39.347Z,102209.25
2023-05-03T07:38:40.967Z,102208.69
2023-05-03T07:43:42.673Z,102196.63
2023-05-03T07:48:44.218Z,102193.81
2023-05-03T07:53:45.784Z,102182.78
2023-05-03T07:58:50.934Z,102181.63
2023-05-03T08:03:59.076Z,102175.19
2023-05-03T08:09:00.921Z,102163.34
2023-05-03T08:14:02.602Z,102162.97
2023-05-03T08:19:04.161Z,102159.22
2023-05-03T08:24:05.782Z,102154.81
2023-05-03T08:29:07.691Z,102170.31
2023-05-03T08:34:09.372Z,102160.09
2023-05-03T08:39:10.885Z,102162.00
2023-05-03T08:44:12.639Z,102157.13
2023-05-03T08:49:14.873Z,102157.78
2023-05-03T08:54:16.476Z,102151.88
2023-05-03T08:59:18.012Z,102149.13
2023-05-03T09:04:19.714Z,102149.81
2023-05-03T09:09:31.378Z,102129.03
2023-05-03T09:14:45.398Z,102145.78
2023-05-03T09:19:56.824Z,102140.06
2023-05-03T09:25:00.389Z,102143.31
2023-05-03T09:30:18.214Z,102130.91
2023-05-03T09:35:19.912Z,102132.25
2023-05-03T09:40:21.550Z,102125.59
2023-05-03T09:45:25.919Z,102126.97
2023-05-03T09:50:27.843Z,102120.53
2023-05-03T09:55:40.076Z,102113.63
2023-05-03T10:00:42.415Z,102106.03
2023-05-03T10:05:48.494Z,102110.03
2023-05-03T10:10:50.859Z,102104.38
2023-05-03T10:15:59.866Z,102106.84
2023-05-03T10:21:07.152Z,102095.50
2023-05-03T10:26:08.659Z,102090.63
2023-05-03T10:31:43.652Z,102074.47
2023-05-03T10:36:49.773Z,102067.47
2023-05-03T10:41:58.648Z,102067.91
2023-05-03T10:47:29.831Z,102073.25
2023-05-03T10:52:40.472Z,102073.41
2023-05-03T10:57:47.234Z,102053.56
2023-05-03T11:03:09.699Z,102041.03
2023-05-03T11:08:14.084Z,102042.84
2023-05-03T11:13:15.740Z,102054.22
2023-05-03T11:18:17.454Z,102040.34
2023-05-03T11:23:19.153Z,102045.47
2023-05-03T11:28:20.785Z,102025.78
2023-05-03T11:33:22.441Z,102028.00
2023-05-03T11:38:23.973Z,102030.00
2023-05-03T11:43:26.309Z,102035.72
2023-05-03T11:48:28.035Z,102024.97
2023-05-03T11:53:29.706Z,102017.94
2023-05-03T11:58:31.338Z,102013.91
2023-05-03T12:03:33.474Z,102009.47
2023-05-03T12:08:37.905Z,101994.47
2023-05-03T12:13:41.723Z,101986.91
2023-05-03T12:19:01.417Z,101982.91
2023-05-03T12:24:05.933Z,101978.00
2023-05-03T12:29:07.765Z,101983.38
2023-05-03T12:39:21.928Z,101963.72
2023-05-03T12:44:24.005Z,101965.78
2023-05-03T12:49:25.965Z,101947.13
2023-05-03T12:54:27.883Z,101951.09
2023-05-03T13:14:50.322Z,101903.50
2023-05-03T13:19:53.351Z,101905.03
2023-05-03T13:24:54.912Z,101890.78
2023-05-03T13:29:56.558Z,101890.09
2023-05-03T13:34:58.140Z,101875.84
2023-05-03T13:39:59.667Z,101878.75
2023-05-03T13:45:01.315Z,101868.31
2023-05-03T13:50:03.195Z,101859.56
2023-05-03T13:55:05.451Z,101841.44
2023-05-03T14:00:07.874Z,101841.00
2023-05-03T14:05:09.891Z,101838.81
2023-05-03T14:10:11.969Z,101836.41
2023-05-03T14:15:13.669Z,101819.72
2023-05-03T14:20:15.352Z,101808.38
2023-05-03T14:25:16.931Z,101806.34
2023-05-03T14:30:18.565Z,101798.34
2023-05-03T14:35:20.287Z,101793.31
2023-05-03T14:40:22.002Z,101787.03
2023-05-03T14:45:23.575Z,101771.78
2023-05-03T14:50:25.296Z,101770.91
2023-05-03T14:55:26.840Z,101757.38
2023-05-03T15:00:28.471Z,101756.09
2023-05-03T15:05:31.216Z,101754.19
2023-05-03T15:10:34.179Z,101752.91
2023-05-03T15:15:40.087Z,101739.84
2023-05-03T15:20:41.540Z,101744.31
2023-05-03T15:25:43.099Z,101736.09
2023-05-03T15:30:44.696Z,101731.66
2023-05-03T15:35:46.289Z,101734.81
2023-05-03T15:40:47.853Z,101726.78
2023-05-03T15:45:52.189Z,101725.09
2023-05-03T15:50:53.761Z,101722.09
2023-05-03T15:55:55.816Z,101734.56
2023-05-03T16:00:57.918Z,101729.94
2023-05-03T16:05:59.992Z,101722.59
2023-05-03T16:11:01.620Z,101713.09
2023-05-03T16:16:03.324Z,101714.06
2023-05-03T16:21:04.936Z,101711.56
2023-05-03T16:26:13.290Z,101711.44
2023-05-03T16:31:15.243Z,101712.69
2023-05-03T16:36:16.869Z,101697.91
2023-05-03T16:41:18.545Z,101695.44
2023-05-03T16:46:20.217Z,101689.72
2023-05-03T16:51:21.850Z,101689.78
2023-05-03T16:56:24.533Z,101696.41
2023-05-03T17:01:26.430Z,101684.81
2023-05-03T17:06:28.727Z,101671.50
2023-05-03T17:11:30.639Z,101674.22
2023-05-03T17:16:32.234Z,101674.56
2023-05-03T17:21:33.806Z,101667.13
2023-05-03T17:26:35.407Z,101658.97
2023-05-03T17:31:37.012Z,101668.28
2023-05-03T17:36:38.560Z,101660.06
2023-05-03T17:41:40.144Z,101660.25
2023-05-03T17:46:41.925Z,101657.97
2023-05-03T17:51:43.548Z,101654.94
2023-05-03T17:56:45.113Z,101653.13
2023-05-03T18:01:47.523Z,101643.91
2023-05-03T18:06:49.097Z,101652.22
2023-05-03T18:11:53.853Z,101645.72
2023-05-03T18:16:55.445Z,101653.03
2023-05-03T18:21:57.029Z,101650.97
2023-05-03T18:26:58.559Z,101651.53
2023-05-03T18:32:00.233Z,101664.72
2023-05-03T18:37:01.871Z,101665.63
2023-05-03T18:42:03.661Z,101660.22
2023-05-03T18:47:05.369Z,101659.97
2023-05-03T18:52:06.949Z,101662.47
2023-05-03T18:57:08.539Z,101662.91
2023-05-03T19:02:10.187Z,101665.94
2023-05-03T19:07:11.738Z,101669.25
2023-05-03T19:12:13.358Z,101667.41
2023-05-03T19:17:14.925Z,101659.22
2023-05-03T19:22:16.522Z,101663.72
2023-05-03T19:27:18.256Z,101661.44
2023-05-03T19:32:19.796Z,101657.13
2023-05-03T19:37:21.346Z,101661.59
2023-05-03T19:42:22.901Z,101658.63
2023-05-03T19:47:24.471Z,101664.03
2023-05-03T19:52:25.990Z,101656.44
2023-05-03T19:57:27.566Z,101664.44
2023-05-03T20:02:29.174Z,101661.72
2023-05-03T20:07:30.800Z,101658.69
2023-05-03T20:12:32.513Z,101662.75
2023-05-03T20:17:34.146Z,101658.59
2023-05-03T20:22:35.689Z,101652.91
2023-05-03T20:27:37.317Z,101653.53
2023-05-03T20:32:39.267Z,101658.19
2023-05-03T20:37:40.860Z,101663.19
2023-05-03T20:42:42.476Z,101662.00
2023-05-03T20:47:44.045Z,101656.28
2023-05-03T20:52:45.646Z,101656.84
2023-05-03T20:57:47.317Z,101667.25
2023-05-03T21:02:48.961Z,101661.09
2023-05-03T21:07:51.290Z,101662.31
2023-05-03T21:12:53.101Z,101662.13
2023-05-03T21:17:54.741Z,101656.28
2023-05-03T21:22:56.355Z,101658.41
2023-05-03T21:27:57.979Z,101647.31
2023-05-03T21:32:59.544Z,101659.09
2023-05-03T21:38:01.210Z,101652.50
2023-05-03T21:43:02.774Z,101645.47
2023-05-03T21:48:04.679Z,101640.94
2023-05-03T21:53:06.354Z,101626.25
2023-05-03T21:58:07.886Z,101619.78
2023-05-03T22:03:09.515Z,101614.03
2023-05-03T22:08:11.137Z,101614.31
2023-05-03T22:13:12.782Z,101616.97
2023-05-03T22:18:14.345Z,101613.31
2023-05-03T22:23:15.923Z,101618.63
2023-05-03T22:28:17.461Z,101623.22
2023-05-03T22:33:19.041Z,101615.66
2023-05-03T22:38:20.716Z,101620.25
2023-05-03T22:43:22.266Z,101605.47
2023-05-03T22:48:23.821Z,101608.44
2023-05-03T22:53:25.543Z,101622.38
2023-05-03T22:58:27.654Z,101607.78
2023-05-03T23:03:29.406Z,101615.00
2023-05-03T23:08:31.009Z,101615.81
2023-05-03T23:13:32.638Z,101603.50
2023-05-03T23:18:34.355Z,101610.06
2023-05-03T23:23:35.959Z,101607.44
2023-05-03T23:28:37.496Z,101599.09
2023-05-03T23:33:39.415Z,101600.72
2023-05-03T23:38:41.258Z,101605.34
2023-05-03T23:43:42.865Z,101591.06
2023-05-03T23:48:44.396Z,101590.41
2023-05-03T23:53:45.974Z,101586.13
2023-05-03T23:58:47.593Z,101585.16
